Time;durP1;ratioP1;P1;durP2;ratioP2;P2;SDS_P1;SDS_P2;PMS_P1;PMS_P2;Temp;Humidity;BMP_temperature;BMP_pressure;BME280_temperature;BME280_humidity;BME280_pressure;Samples;Min_cycle;Max_cycle;Signal;HPM_P1;HPM_P2
2021/07/23 00:02:25;;;;;;;10.65;9.38;;;19.40;99.90;;;;;;4994049;28;20442;-61
2021/07/23 00:04:50;;;;;;;12.07;10.23;;;19.40;99.90;;;;;;4988832;28;20187;-63
2021/07/23 00:07:19;;;;;;;11.47;10.27;;;19.40;99.90;;;;;;4973049;28;20827;-61
2021/07/23 00:09:45;;;;;;;10.30;9.30;;;19.40;99.90;;;;;;4990017;28;20263;-61
2021/07/23 00:12:10;;;;;;;12.20;11.00;;;19.30;99.90;;;;;;4976335;28;20193;-61
2021/07/23 00:14:36;;;;;;;11.90;10.63;;;19.20;99.90;;;;;;4978122;28;20207;-61
2021/07/23 00:17:02;;;;;;;10.73;9.63;;;19.20;99.90;;;;;;4978499;28;20608;-60
2021/07/23 00:19:28;;;;;;;12.23;11.03;;;19.30;99.90;;;;;;4988771;28;20183;-61
2021/07/23 00:21:53;;;;;;;11.90;10.00;;;19.20;99.90;;;;;;4982519;28;20297;-62
2021/07/23 00:24:19;;;;;;;12.70;10.77;;;19.20;99.90;;;;;;4995706;28;20187;-60
2021/07/23 00:26:54;;;;;;;12.40;9.93;;;19.10;99.90;;;;;;4982413;28;20567;-61
2021/07/23 00:29:20;;;;;;;11.20;9.20;;;19.00;99.90;;;;;;4976769;28;20675;-61
2021/07/23 00:31:46;;;;;;;11.85;10.65;;;18.90;99.90;;;;;;4968046;28;20533;-61
2021/07/23 00:34:11;;;;;;;11.43;9.53;;;18.90;99.90;;;;;;4977833;28;20214;-63
2021/07/23 00:36:37;;;;;;;12.20;9.60;;;18.90;99.90;;;;;;4972428;28;20704;-61
2021/07/23 00:39:03;;;;;;;12.93;10.40;;;18.90;99.90;;;;;;4980746;28;20188;-62
2021/07/23 00:41:28;;;;;;;11.67;9.20;;;18.90;99.90;;;;;;5000147;28;20722;-61
2021/07/23 00:43:54;;;;;;;11.23;9.40;;;18.90;99.90;;;;;;4979636;28;20431;-61
2021/07/23 00:46:24;;;;;;;11.00;9.80;;;18.90;99.90;;;;;;4978473;28;20188;-61
2021/07/23 00:48:50;;;;;;;10.90;9.68;;;18.90;99.90;;;;;;4992364;28;20204;-63
2021/07/23 00:51:15;;;;;;;13.20;10.30;;;18.90;99.90;;;;;;4971676;28;20583;-60
2021/07/23 00:53:41;;;;;;;11.47;10.10;;;18.70;99.90;;;;;;4994683;28;20584;-61
2021/07/23 00:56:07;;;;;;;11.47;10.30;;;18.60;99.90;;;;;;4986034;28;20638;-64
2021/07/23 00:58:33;;;;;;;12.43;9.97;;;18.60;99.90;;;;;;4978902;28;20188;-64
2021/07/23 01:01:00;;;;;;;11.23;10.00;;;18.50;99.90;;;;;;4977683;28;20254;-61
2021/07/23 01:03:28;;;;;;;10.68;9.52;;;18.50;99.90;;;;;;4990090;28;20209;-60
2021/07/23 01:05:55;;;;;;;10.30;9.30;;;18.50;99.90;;;;;;4988914;28;20195;-62
2021/07/23 01:08:20;;;;;;;11.07;9.73;;;18.50;99.90;;;;;;4975589;28;20184;-60
2021/07/23 01:10:46;;;;;;;9.97;9.07;;;18.40;99.90;;;;;;4980317;28;20214;-60
2021/07/23 01:13:12;;;;;;;11.67;9.40;;;18.30;99.90;;;;;;4976212;28;20684;-60
2021/07/23 01:15:38;;;;;;;10.52;9.40;;;18.30;99.90;;;;;;4979109;28;20253;-61
2021/07/23 01:18:04;;;;;;;10.85;9.75;;;18.20;99.90;;;;;;4977926;28;20187;-61
2021/07/23 01:20:30;;;;;;;10.23;9.13;;;18.20;99.90;;;;;;4981986;28;20211;-60
2021/07/23 01:23:00;;;;;;;10.75;8.90;;;18.20;99.90;;;;;;4986852;28;20261;-62
2021/07/23 01:25:30;;;;;;;10.05;9.00;;;18.20;99.90;;;;;;4985921;28;20187;-60
2021/07/23 01:27:56;;;;;;;10.85;9.60;;;18.10;99.90;;;;;;4974216;28;20219;-61
2021/07/23 01:30:25;;;;;;;10.40;9.30;;;18.10;99.90;;;;;;4976986;28;20226;-61
2021/07/23 01:32:51;;;;;;;14.68;10.20;;;18.00;99.90;;;;;;4981458;28;20199;-60
2021/07/23 01:35:18;;;;;;;10.95;9.85;;;18.00;99.90;;;;;;4981460;28;20253;-61
2021/07/23 01:37:45;;;;;;;11.70;10.40;;;18.10;99.90;;;;;;4992042;28;20179;-61
2021/07/23 01:40:13;;;;;;;10.48;9.48;;;18.00;99.90;;;;;;4987919;28;20215;-61
2021/07/23 01:42:40;;;;;;;9.77;8.80;;;18.00;99.90;;;;;;4974851;28;20188;-61
2021/07/23 01:45:06;;;;;;;11.82;9.20;;;18.00;99.90;;;;;;4984117;28;20194;-60
2021/07/23 01:47:33;;;;;;;11.13;9.95;;;18.00;99.90;;;;;;4976238;28;20203;-60
2021/07/23 01:49:59;;;;;;;10.75;9.65;;;18.00;99.90;;;;;;4968530;28;20215;-61
2021/07/23 01:52:25;;;;;;;10.27;9.27;;;18.00;99.90;;;;;;4980177;28;20652;-61
2021/07/23 01:54:51;;;;;;;10.68;9.57;;;18.00;99.90;;;;;;4983244;28;20208;-62
2021/07/23 01:57:17;;;;;;;11.90;9.47;;;17.90;99.90;;;;;;4982368;28;20179;-63
2021/07/23 01:59:42;;;;;;;12.20;9.17;;;17.90;99.90;;;;;;4987705;28;21014;-62
2021/07/23 02:02:08;;;;;;;10.70;9.57;;;17.90;99.90;;;;;;4976558;28;21087;-60
2021/07/23 02:04:34;;;;;;;10.43;9.33;;;17.80;99.90;;;;;;4978740;28;20215;-60
2021/07/23 02:07:00;;;;;;;10.20;9.20;;;17.70;99.90;;;;;;4993127;28;20200;-60
2021/07/23 02:09:26;;;;;;;10.90;9.77;;;17.50;99.90;;;;;;4979719;28;20184;-60
2021/07/23 02:11:52;;;;;;;9.43;8.43;;;17.60;99.90;;;;;;4980288;28;20191;-60
2021/07/23 02:14:17;;;;;;;10.17;8.80;;;17.60;99.90;;;;;;4978073;28;20664;-61
2021/07/23 02:16:43;;;;;;;9.90;8.90;;;17.60;99.90;;;;;;4981764;28;20214;-62
2021/07/23 02:19:08;;;;;;;10.53;9.33;;;17.60;99.90;;;;;;4987734;28;20683;-60
2021/07/23 02:21:37;;;;;;;16.30;9.60;;;17.60;99.90;;;;;;4970431;28;20203;-60
2021/07/23 02:24:04;;;;;;;9.80;8.80;;;17.60;99.90;;;;;;4984144;28;20204;-61
2021/07/23 02:26:30;;;;;;;10.75;9.15;;;17.50;99.90;;;;;;4981181;28;20186;-63
2021/07/23 02:28:59;;;;;;;11.13;8.93;;;17.50;99.90;;;;;;4971889;28;20330;-62
2021/07/23 02:31:25;;;;;;;11.20;9.35;;;17.50;99.90;;;;;;4971712;28;20204;-61
2021/07/23 02:33:50;;;;;;;11.57;9.77;;;17.50;99.90;;;;;;4988735;28;20222;-61
2021/07/23 02:36:16;;;;;;;12.50;9.80;;;17.50;99.90;;;;;;4976410;28;20250;-60
2021/07/23 02:38:42;;;;;;;10.10;9.00;;;17.30;99.90;;;;;;4981807;28;20180;-64
2021/07/23 02:41:07;;;;;;;9.90;9.00;;;17.60;99.90;;;;;;4992139;28;20227;-61
2021/07/23 02:43:33;;;;;;;10.40;9.27;;;17.40;99.90;;;;;;4976091;28;20640;-62
2021/07/23 02:45:58;;;;;;;10.73;9.60;;;17.50;99.90;;;;;;4983675;28;20274;-63
2021/07/23 02:48:24;;;;;;;10.87;9.77;;;17.50;99.90;;;;;;4982728;28;20671;-61
2021/07/23 02:50:50;;;;;;;10.70;9.60;;;17.40;99.90;;;;;;4971971;28;20226;-60
2021/07/23 02:53:17;;;;;;;10.17;9.27;;;17.40;99.90;;;;;;4971263;28;20282;-63
2021/07/23 02:55:43;;;;;;;10.80;9.70;;;17.40;99.90;;;;;;4975179;28;20199;-61
2021/07/23 02:58:09;;;;;;;9.43;8.53;;;17.50;99.90;;;;;;4975114;28;20599;-62
2021/07/23 03:00:34;;;;;;;10.37;9.37;;;17.40;99.90;;;;;;4973972;28;20204;-63
2021/07/23 03:03:04;;;;;;;10.30;9.30;;;17.50;99.90;;;;;;4972181;28;20199;-60
2021/07/23 03:05:30;;;;;;;10.27;9.27;;;17.10;99.90;;;;;;4973038;28;20186;-61
2021/07/23 03:07:55;;;;;;;10.87;9.37;;;17.20;99.90;;;;;;4965689;28;20183;-60
2021/07/23 03:10:21;;;;;;;10.93;9.80;;;16.90;99.90;;;;;;4973801;28;20466;-61
2021/07/23 03:12:47;;;;;;;12.87;10.07;;;17.30;99.90;;;;;;4973091;28;20671;-60
2021/07/23 03:15:13;;;;;;;10.60;9.37;;;16.90;99.90;;;;;;4980072;28;20261;-62
2021/07/23 03:17:39;;;;;;;10.53;9.47;;;16.90;99.90;;;;;;4981060;28;20438;-60
2021/07/23 03:20:05;;;;;;;11.93;10.37;;;17.10;99.90;;;;;;4975548;28;20203;-61
2021/07/23 03:22:31;;;;;;;11.13;9.65;;;17.10;99.90;;;;;;4981254;28;20449;-60
2021/07/23 03:24:57;;;;;;;10.80;9.70;;;16.90;99.90;;;;;;4978724;28;20586;-60
2021/07/23 03:27:23;;;;;;;10.65;8.75;;;16.80;99.90;;;;;;4975892;28;20284;-60
2021/07/23 03:29:48;;;;;;;14.33;9.80;;;16.80;99.90;;;;;;4978053;28;20290;-62
2021/07/23 03:32:14;;;;;;;11.00;9.40;;;16.80;99.90;;;;;;4977622;28;20665;-61
2021/07/23 03:34:39;;;;;;;10.23;8.73;;;16.70;99.90;;;;;;4977190;28;20219;-61
2021/07/23 03:37:05;;;;;;;10.93;9.07;;;16.70;99.90;;;;;;4977837;28;20190;-63
2021/07/23 03:39:31;;;;;;;10.00;8.97;;;17.00;99.90;;;;;;4981126;28;20184;-61
2021/07/23 03:41:57;;;;;;;11.00;9.70;;;16.80;99.90;;;;;;4975565;28;20183;-61
2021/07/23 03:44:22;;;;;;;10.07;8.97;;;16.70;99.90;;;;;;4981282;28;20443;-61
2021/07/23 03:46:48;;;;;;;10.47;9.47;;;16.60;99.90;;;;;;4975538;28;20187;-64
2021/07/23 03:49:14;;;;;;;11.47;10.00;;;16.50;99.90;;;;;;4972031;28;20482;-60
2021/07/23 03:51:40;;;;;;;11.10;9.90;;;16.80;99.90;;;;;;4977249;28;20471;-61
2021/07/23 03:54:05;;;;;;;13.13;10.47;;;16.50;99.90;;;;;;4976935;28;20226;-60
2021/07/23 03:56:31;;;;;;;11.60;9.80;;;16.40;99.90;;;;;;4975148;28;20589;-62
2021/07/23 03:58:56;;;;;;;11.93;10.60;;;16.60;99.90;;;;;;4983541;28;20354;-62
2021/07/23 04:01:22;;;;;;;10.80;9.70;;;16.50;99.90;;;;;;4972464;28;20566;-61
2021/07/23 04:03:48;;;;;;;12.20;9.97;;;16.80;99.90;;;;;;4972857;28;20238;-60
2021/07/23 04:06:13;;;;;;;10.67;9.57;;;16.70;99.90;;;;;;4976837;28;20188;-63
2021/07/23 04:08:40;;;;;;;11.20;10.00;;;16.60;99.90;;;;;;4986478;28;20195;-62
2021/07/23 04:11:06;;;;;;;11.50;9.63;;;16.50;99.90;;;;;;4988029;28;20207;-62
2021/07/23 04:13:32;;;;;;;11.32;8.80;;;16.50;99.90;;;;;;4974855;28;20188;-62
2021/07/23 04:15:58;;;;;;;13.93;10.13;;;16.50;99.90;;;;;;4973795;28;20690;-61
2021/07/23 04:18:23;;;;;;;11.57;10.07;;;16.50;99.90;;;;;;4969321;28;20188;-61
2021/07/23 04:20:49;;;;;;;10.57;9.40;;;16.70;99.90;;;;;;4981751;28;20294;-60
2021/07/23 04:23:15;;;;;;;10.70;9.60;;;16.50;99.90;;;;;;4969795;28;20187;-60
2021/07/23 04:25:40;;;;;;;12.30;9.87;;;16.40;99.90;;;;;;4970014;28;20199;-58
2021/07/23 04:28:06;;;;;;;15.00;10.80;;;16.30;99.90;;;;;;4968247;28;20195;-62
2021/07/23 04:30:33;;;;;;;10.23;9.23;;;16.50;99.90;;;;;;4972918;28;20203;-61
2021/07/23 04:32:58;;;;;;;12.50;10.48;;;16.50;99.90;;;;;;4968381;28;20216;-61
2021/07/23 04:35:24;;;;;;;11.77;10.60;;;16.40;99.90;;;;;;4986369;28;20207;-58
2021/07/23 04:37:50;;;;;;;11.67;10.50;;;16.50;99.90;;;;;;4966071;28;20635;-57
2021/07/23 04:40:15;;;;;;;11.77;10.53;;;16.30;99.90;;;;;;4969323;28;20204;-53
2021/07/23 04:42:41;;;;;;;11.30;9.30;;;16.70;99.90;;;;;;4977880;28;20652;-53
2021/07/23 04:45:07;;;;;;;12.93;11.57;;;16.90;99.90;;;;;;4972469;28;20192;-55
2021/07/23 04:47:33;;;;;;;10.93;9.65;;;16.80;99.90;;;;;;4972395;28;20709;-55
2021/07/23 04:49:58;;;;;;;12.13;9.30;;;16.90;99.90;;;;;;4968101;28;20222;-55
2021/07/23 04:52:24;;;;;;;10.53;9.43;;;17.00;99.90;;;;;;4984415;28;20527;-56
2021/07/23 04:54:50;;;;;;;12.43;9.70;;;17.10;99.90;;;;;;4984884;28;20226;-56
2021/07/23 04:57:18;;;;;;;12.20;10.33;;;17.20;99.90;;;;;;4967629;28;20640;-56
2021/07/23 04:59:47;;;;;;;11.25;9.52;;;17.40;99.90;;;;;;4967524;28;20219;-54
2021/07/23 05:02:12;;;;;;;11.65;9.65;;;17.20;99.90;;;;;;4969085;28;20273;-56
2021/07/23 05:04:38;;;;;;;11.90;10.67;;;17.40;99.90;;;;;;4967005;28;20824;-53
2021/07/23 05:07:04;;;;;;;13.17;11.73;;;17.50;99.90;;;;;;4967247;28;20187;-54
2021/07/23 05:09:29;;;;;;;10.13;9.13;;;17.70;99.90;;;;;;4968297;28;20198;-55
2021/07/23 05:11:55;;;;;;;11.87;9.90;;;17.70;99.90;;;;;;4965154;28;20184;-55
2021/07/23 05:14:21;;;;;;;13.03;11.70;;;17.70;99.90;;;;;;4969094;28;20241;-54
2021/07/23 05:16:47;;;;;;;11.23;10.05;;;17.90;99.90;;;;;;4968744;28;20539;-54
2021/07/23 05:19:15;;;;;;;12.23;10.13;;;17.90;99.90;;;;;;4982427;28;20210;-55
2021/07/23 05:21:41;;;;;;;12.15;9.50;;;17.80;99.90;;;;;;4968788;28;20207;-55
2021/07/23 05:24:07;;;;;;;10.57;8.65;;;17.90;99.90;;;;;;4968911;28;20270;-55
2021/07/23 05:26:37;;;;;;;13.17;11.77;;;18.00;99.90;;;;;;4975203;28;20654;-54
2021/07/23 05:29:08;;;;;;;11.02;9.82;;;18.10;99.90;;;;;;4984355;28;20454;-55
2021/07/23 05:31:35;;;;;;;10.57;9.48;;;18.30;99.90;;;;;;4985606;28;20240;-56
2021/07/23 05:34:02;;;;;;;12.65;9.77;;;18.50;99.90;;;;;;4966726;28;20222;-56
2021/07/23 05:36:28;;;;;;;10.63;8.85;;;18.60;99.90;;;;;;4971791;28;20701;-56
2021/07/23 05:38:54;;;;;;;13.40;10.33;;;18.70;99.90;;;;;;4971501;28;20321;-55
2021/07/23 05:41:20;;;;;;;11.20;9.30;;;18.70;99.90;;;;;;4968147;28;20999;-56
2021/07/23 05:43:46;;;;;;;9.90;8.90;;;18.90;99.90;;;;;;4975215;28;20522;-56
2021/07/23 05:46:11;;;;;;;11.33;10.13;;;19.00;99.90;;;;;;4970883;28;20625;-55
2021/07/23 05:48:38;;;;;;;10.83;9.63;;;19.10;99.90;;;;;;4986677;28;20822;-55
2021/07/23 05:51:04;;;;;;;13.13;10.77;;;19.10;99.90;;;;;;4972187;28;20302;-56
2021/07/23 05:53:31;;;;;;;12.00;10.23;;;19.20;99.90;;;;;;4969580;28;20709;-56
2021/07/23 05:56:00;;;;;;;13.82;12.20;;;19.40;99.90;;;;;;4972359;28;20657;-56
2021/07/23 05:58:27;;;;;;;11.32;9.57;;;19.40;99.90;;;;;;4980398;28;20716;-56
2021/07/23 06:00:53;;;;;;;11.13;9.32;;;19.60;99.90;;;;;;4973738;28;20208;-56
2021/07/23 06:03:19;;;;;;;12.07;9.55;;;19.80;99.90;;;;;;4969784;28;20184;-56
2021/07/23 06:05:44;;;;;;;12.40;11.10;;;20.00;99.90;;;;;;4975895;28;20192;-56
2021/07/23 06:08:10;;;;;;;12.93;10.87;;;20.10;99.90;;;;;;4980470;28;20624;-56
2021/07/23 06:10:35;;;;;;;11.30;10.10;;;20.20;99.90;;;;;;4971298;28;20219;-57
2021/07/23 06:13:01;;;;;;;11.20;9.97;;;20.40;99.90;;;;;;4971409;28;20290;-56
2021/07/23 06:15:26;;;;;;;11.13;9.60;;;20.60;99.90;;;;;;4969956;28;20242;-59
2021/07/23 06:17:52;;;;;;;11.20;10.00;;;20.60;99.90;;;;;;4973060;28;20321;-56
2021/07/23 06:20:18;;;;;;;14.30;10.80;;;20.70;99.90;;;;;;4974913;28;20297;-57
2021/07/23 06:22:44;;;;;;;15.67;9.97;;;20.90;99.90;;;;;;4980679;28;20287;-58
2021/07/23 06:25:10;;;;;;;12.63;10.20;;;21.00;99.90;;;;;;4972974;28;20192;-57
2021/07/23 06:27:36;;;;;;;11.55;10.20;;;21.10;99.90;;;;;;4968374;28;20192;-57
2021/07/23 06:30:02;;;;;;;12.67;10.97;;;21.20;99.90;;;;;;4968234;28;20266;-56
2021/07/23 06:32:30;;;;;;;12.70;10.70;;;21.30;99.80;;;;;;4985347;28;20196;-56
2021/07/23 06:34:57;;;;;;;12.07;10.38;;;21.40;99.70;;;;;;4969444;28;20299;-57
2021/07/23 06:37:23;;;;;;;13.33;11.33;;;21.50;99.30;;;;;;4973390;28;20183;-57
2021/07/23 06:39:49;;;;;;;14.25;11.77;;;21.60;99.20;;;;;;4973716;28;20460;-56
2021/07/23 06:42:16;;;;;;;13.15;11.15;;;21.80;99.00;;;;;;4977244;28;20194;-56
2021/07/23 06:44:42;;;;;;;14.53;10.73;;;21.90;98.80;;;;;;4965798;28;20192;-56
2021/07/23 06:47:08;;;;;;;12.60;11.40;;;22.00;98.40;;;;;;5013897;23;20500;-56
2021/07/23 06:49:34;;;;;;;13.73;10.90;;;22.20;98.30;;;;;;5023222;28;20429;-56
2021/07/23 06:52:01;;;;;;;13.97;11.07;;;22.30;98.20;;;;;;5008517;28;20441;-56
2021/07/23 06:54:27;;;;;;;12.40;11.20;;;22.50;97.80;;;;;;4998988;28;20448;-57
2021/07/23 06:56:53;;;;;;;14.20;11.43;;;23.00;96.70;;;;;;5011092;28;20865;-57
2021/07/23 06:59:19;;;;;;;29.00;13.70;;;23.90;95.30;;;;;;5002628;28;20186;-58
2021/07/23 07:01:45;;;;;;;17.43;11.73;;;24.90;93.90;;;;;;5008153;28;21331;-57
2021/07/23 07:04:10;;;;;;;12.43;11.23;;;25.20;92.80;;;;;;5006482;28;20437;-57
2021/07/23 07:06:36;;;;;;;12.37;10.97;;;25.60;91.20;;;;;;5006490;28;20730;-58
2021/07/23 07:09:02;;;;;;;12.17;10.37;;;26.30;90.60;;;;;;5011247;28;20437;-58
2021/07/23 07:11:28;;;;;;;13.90;10.70;;;27.30;87.40;;;;;;5006399;28;20213;-58
2021/07/23 07:13:54;;;;;;;14.13;10.90;;;27.50;84.00;;;;;;5007089;28;20444;-60
2021/07/23 07:16:20;;;;;;;12.30;11.10;;;28.50;80.90;;;;;;5005770;28;20217;-56
2021/07/23 07:18:45;;;;;;;25.30;22.90;;;29.90;74.90;;;;;;5006855;28;20316;-59
2021/07/23 07:21:13;;;;;;;12.70;11.60;;;30.20;72.80;;;;;;5007715;28;20392;-55
2021/07/23 07:23:42;;;;;;;12.97;11.67;;;31.40;70.50;;;;;;5008168;28;20182;-56
2021/07/23 07:26:11;;;;;;;12.10;10.90;;;33.40;63.50;;;;;;5007093;28;20441;-55
2021/07/23 07:28:37;;;;;;;16.93;12.80;;;34.20;59.00;;;;;;5007320;28;20453;-55
2021/07/23 07:31:02;;;;;;;12.93;11.63;;;33.60;58.20;;;;;;5004906;28;20561;-55
2021/07/23 07:33:29;;;;;;;12.33;11.13;;;33.70;57.40;;;;;;5007647;28;20249;-56
2021/07/23 07:35:55;;;;;;;19.43;17.53;;;35.00;56.10;;;;;;5007551;28;20305;-55
2021/07/23 07:38:21;;;;;;;14.27;12.97;;;34.50;55.20;;;;;;5004454;28;20516;-56
2021/07/23 07:40:46;;;;;;;13.77;12.33;;;35.10;54.20;;;;;;5006982;28;20586;-57
2021/07/23 07:43:12;;;;;;;12.80;11.50;;;36.00;51.80;;;;;;5007212;28;20191;-56
2021/07/23 07:45:38;;;;;;;12.63;11.50;;;36.40;50.60;;;;;;5007721;28;20651;-57
2021/07/23 07:48:04;;;;;;;12.97;11.87;;;36.60;50.30;;;;;;5010927;28;20238;-56
2021/07/23 07:50:31;;;;;;;11.60;10.57;;;36.80;49.00;;;;;;5007029;28;20489;-57
2021/07/23 07:52:57;;;;;;;12.60;11.47;;;35.20;51.70;;;;;;5006520;28;20249;-56
2021/07/23 07:55:24;;;;;;;12.80;11.50;;;36.00;50.80;;;;;;5000829;28;20619;-56
2021/07/23 07:57:49;;;;;;;13.50;12.10;;;35.20;50.70;;;;;;5004237;28;20500;-57
2021/07/23 08:00:15;;;;;;;13.90;12.60;;;36.50;50.30;;;;;;5003708;28;20485;-57
2021/07/23 08:02:42;;;;;;;16.60;12.47;;;35.60;49.40;;;;;;5010304;28;20186;-56
2021/07/23 08:05:09;;;;;;;14.13;12.73;;;36.70;49.40;;;;;;5010663;28;20449;-56
2021/07/23 08:07:35;;;;;;;14.40;12.90;;;36.50;49.30;;;;;;5011437;28;20441;-56
2021/07/23 08:10:05;;;;;;;13.70;12.50;;;37.30;48.50;;;;;;5006532;28;20478;-56
2021/07/23 08:12:31;;;;;;;12.70;11.60;;;36.90;48.40;;;;;;5011344;28;20449;-55
2021/07/23 08:14:57;;;;;;;11.80;10.63;;;37.90;47.00;;;;;;5005659;28;20477;-56
2021/07/23 08:17:24;;;;;;;13.63;12.53;;;38.60;45.50;;;;;;5008806;28;20540;-56
2021/07/23 08:19:50;;;;;;;13.70;12.30;;;37.50;46.00;;;;;;5010201;28;20468;-56
2021/07/23 08:22:17;;;;;;;14.47;13.00;;;38.00;46.20;;;;;;5008768;28;20532;-56
2021/07/23 08:24:42;;;;;;;14.90;13.70;;;37.50;46.10;;;;;;5011100;28;20191;-56
2021/07/23 08:27:08;;;;;;;15.17;13.90;;;37.30;46.20;;;;;;5010191;28;20453;-58
2021/07/23 08:29:34;;;;;;;15.73;14.20;;;36.70;46.20;;;;;;5014056;28;20473;-56
2021/07/23 08:32:08;;;;;;;13.40;12.13;;;37.00;46.50;;;;;;5010441;28;20195;-58
2021/07/23 08:34:34;;;;;;;14.37;12.90;;;37.50;46.00;;;;;;5008646;28;20445;-57
2021/07/23 08:36:59;;;;;;;14.03;12.73;;;37.90;44.60;;;;;;5007174;28;20959;-56
2021/07/23 08:39:25;;;;;;;13.73;12.43;;;38.20;44.30;;;;;;5009582;28;20456;-56
2021/07/23 08:41:51;;;;;;;13.40;12.00;;;38.10;44.10;;;;;;5009682;28;20602;-57
2021/07/23 08:44:16;;;;;;;14.07;12.80;;;38.10;43.70;;;;;;5011281;28;20183;-56
2021/07/23 08:46:42;;;;;;;12.43;11.13;;;37.70;43.00;;;;;;5006011;28;20690;-56
2021/07/23 08:49:08;;;;;;;13.73;12.27;;;37.10;44.40;;;;;;5005931;28;20187;-58
2021/07/23 08:51:34;;;;;;;15.77;13.00;;;36.10;45.30;;;;;;5010051;28;20476;-57
2021/07/23 08:54:00;;;;;;;13.80;12.40;;;36.50;44.80;;;;;;5007196;28;20449;-56
2021/07/23 08:56:25;;;;;;;13.60;12.07;;;36.10;44.80;;;;;;5009480;28;20223;-56
2021/07/23 08:58:51;;;;;;;14.03;12.57;;;36.60;45.00;;;;;;5007149;28;20226;-56
2021/07/23 09:01:17;;;;;;;14.53;11.97;;;37.10;44.00;;;;;;5009072;28;20305;-56
2021/07/23 09:03:42;;;;;;;28.63;26.20;;;36.80;43.60;;;;;;5008913;28;20600;-56
2021/07/23 09:06:18;;;;;;;14.67;13.47;;;36.00;45.70;;;;;;5010767;28;20194;-57
2021/07/23 09:08:48;;;;;;;12.97;11.70;;;36.60;44.80;;;;;;5009433;28;20747;-58
2021/07/23 09:11:14;;;;;;;13.10;12.00;;;37.30;43.80;;;;;;5005084;28;20465;-58
2021/07/23 09:13:40;;;;;;;11.63;10.63;;;36.90;44.40;;;;;;5008197;28;20490;-57
2021/07/23 09:16:24;;;;;;;14.90;11.70;;;36.40;45.10;;;;;;5004902;28;20416;-56
2021/07/23 09:19:07;;;;;;;13.37;12.20;;;36.90;44.00;;;;;;5009168;28;20442;-56
2021/07/23 09:21:37;;;;;;;11.93;11.03;;;36.50;44.40;;;;;;5007889;28;20457;-56
2021/07/23 09:24:07;;;;;;;12.80;11.67;;;37.00;44.30;;;;;;5009343;28;20449;-57
2021/07/23 09:26:44;;;;;;;12.40;11.10;;;37.40;43.80;;;;;;5011279;28;20816;-56
2021/07/23 09:29:10;;;;;;;12.23;11.03;;;37.60;43.00;;;;;;5005658;28;20454;-56
2021/07/23 09:31:36;;;;;;;10.90;9.90;;;37.20;43.50;;;;;;5007169;28;20469;-57
2021/07/23 09:34:05;;;;;;;11.67;10.67;;;38.30;42.30;;;;;;4981230;28;20545;-58
2021/07/23 09:36:32;;;;;;;11.60;10.60;;;38.80;41.50;;;;;;5005864;28;20602;-58
2021/07/23 09:39:06;;;;;;;13.00;11.80;;;38.00;42.00;;;;;;5007144;28;20902;-59
2021/07/23 09:41:33;;;;;;;12.30;11.20;;;37.90;41.90;;;;;;5008441;28;20460;-59
2021/07/23 09:44:02;;;;;;;12.23;11.10;;;37.10;43.00;;;;;;5007181;28;20864;-57
2021/07/23 09:46:30;;;;;;;12.90;11.70;;;37.70;42.10;;;;;;5006593;28;20458;-58
2021/07/23 09:48:57;;;;;;;11.70;10.80;;;37.40;43.10;;;;;;5002294;28;20488;-57
2021/07/23 09:51:25;;;;;;;11.40;10.30;;;37.50;42.90;;;;;;5006573;28;20770;-57
2021/07/23 09:53:52;;;;;;;11.93;10.13;;;38.20;42.20;;;;;;5006388;28;20449;-57
2021/07/23 09:56:18;;;;;;;11.83;10.70;;;38.40;41.60;;;;;;5009537;28;20468;-56
2021/07/23 09:58:52;;;;;;;11.60;10.60;;;38.30;41.70;;;;;;5005319;28;20727;-58
2021/07/23 10:01:42;;;;;;;12.30;11.03;;;38.10;41.50;;;;;;5005394;28;20457;-56
2021/07/23 10:04:38;;;;;;;10.87;9.77;;;37.20;42.10;;;;;;4991364;28;20449;-56
2021/07/23 10:07:18;;;;;;;11.40;10.50;;;37.60;42.30;;;;;;5024670;28;20537;-56
2021/07/23 10:09:43;;;;;;;12.20;11.13;;;37.50;41.60;;;;;;5004257;28;20465;-56
2021/07/23 10:12:12;;;;;;;11.57;10.67;;;37.10;42.20;;;;;;5005997;28;20492;-57
2021/07/23 10:14:41;;;;;;;11.80;10.80;;;36.90;42.70;;;;;;5005787;28;20217;-56
2021/07/23 10:17:08;;;;;;;10.47;9.50;;;36.80;42.70;;;;;;5007079;28;20449;-56
2021/07/23 10:19:36;;;;;;;12.77;11.57;;;36.40;43.60;;;;;;5004955;28;20443;-58
2021/07/23 10:22:02;;;;;;;12.07;11.00;;;35.40;44.80;;;;;;5006276;28;21011;-58
2021/07/23 10:24:31;;;;;;;11.30;10.30;;;34.30;46.40;;;;;;5007677;28;20885;-57
2021/07/23 10:26:58;;;;;;;11.00;9.93;;;33.90;47.10;;;;;;5005590;28;20508;-56
2021/07/23 10:29:43;;;;;;;11.73;10.83;;;34.00;47.20;;;;;;5007799;28;20441;-57
2021/07/23 10:32:26;;;;;;;12.60;11.27;;;33.40;47.70;;;;;;5020119;28;20445;-57
2021/07/23 10:34:53;;;;;;;10.70;9.40;;;32.90;49.20;;;;;;5008333;28;20469;-56
2021/07/23 10:37:28;;;;;;;10.90;9.90;;;32.60;49.40;;;;;;5004601;28;20528;-56
2021/07/23 10:40:09;;;;;;;11.20;10.20;;;32.10;51.20;;;;;;5020330;28;20471;-56
2021/07/23 10:42:39;;;;;;;11.03;10.03;;;31.60;51.70;;;;;;5017998;28;20898;-58
2021/07/23 10:45:14;;;;;;;11.80;10.80;;;31.20;52.40;;;;;;5005008;28;20938;-57
2021/07/23 10:47:44;;;;;;;11.10;10.00;;;31.00;52.50;;;;;;5020446;28;20445;-58
2021/07/23 10:50:34;;;;;;;12.03;10.10;;;30.80;53.30;;;;;;5014955;28;20464;-56
2021/07/23 10:53:39;;;;;;;12.33;11.20;;;30.50;54.00;;;;;;5006217;28;20487;-56
2021/07/23 10:56:04;;;;;;;11.00;10.00;;;30.40;54.50;;;;;;5013311;28;20504;-58
2021/07/23 10:58:31;;;;;;;10.70;9.70;;;30.00;55.60;;;;;;5009289;28;20480;-56
2021/07/23 11:01:06;;;;;;;14.30;11.20;;;29.80;56.40;;;;;;5011979;28;20862;-56
2021/07/23 11:03:35;;;;;;;11.57;10.53;;;29.80;56.30;;;;;;5023322;28;20433;-56
2021/07/23 11:06:01;;;;;;;11.53;10.50;;;30.70;54.40;;;;;;5021963;28;20538;-57
2021/07/23 11:08:27;;;;;;;11.90;10.50;;;31.50;52.70;;;;;;5008889;28;20440;-57
2021/07/23 11:10:54;;;;;;;11.80;10.80;;;32.10;51.60;;;;;;5016762;28;20464;-57
2021/07/23 11:13:21;;;;;;;11.80;10.70;;;33.20;50.70;;;;;;5009432;28;20441;-56
2021/07/23 11:15:47;;;;;;;12.17;10.93;;;34.00;48.90;;;;;;5010555;28;20893;-56
2021/07/23 11:18:16;;;;;;;12.10;10.90;;;35.00;47.00;;;;;;5011527;28;20447;-56
2021/07/23 11:20:42;;;;;;;10.60;9.77;;;34.70;47.00;;;;;;5011613;28;20206;-56
2021/07/23 11:23:10;;;;;;;10.00;9.10;;;35.50;46.20;;;;;;5010251;28;21053;-57
2021/07/23 11:25:37;;;;;;;11.00;10.10;;;36.10;44.80;;;;;;5007985;28;22077;-57
2021/07/23 11:28:06;;;;;;;10.90;9.90;;;36.20;44.40;;;;;;5011234;28;20440;-56
2021/07/23 11:30:36;;;;;;;11.20;10.23;;;36.70;43.50;;;;;;5026258;28;20513;-57
2021/07/23 11:33:07;;;;;;;10.73;9.83;;;36.40;43.20;;;;;;5011462;28;20448;-56
2021/07/23 11:35:40;;;;;;;10.67;9.80;;;35.80;44.00;;;;;;5023802;28;20511;-58
2021/07/23 11:38:11;;;;;;;11.83;10.73;;;35.10;45.10;;;;;;5019687;28;20937;-57
2021/07/23 11:40:37;;;;;;;13.10;11.83;;;35.20;45.40;;;;;;5012436;28;21081;-57
2021/07/23 11:43:04;;;;;;;10.80;9.90;;;35.50;45.10;;;;;;5009804;28;20852;-57
2021/07/23 11:45:35;;;;;;;10.67;9.80;;;35.10;44.70;;;;;;5018377;28;20190;-56
2021/07/23 11:48:15;;;;;;;11.27;10.17;;;34.90;45.00;;;;;;5013864;28;20494;-56
2021/07/23 11:50:52;;;;;;;10.17;9.27;;;34.50;45.30;;;;;;5014778;28;20472;-57
2021/07/23 11:53:17;;;;;;;9.83;8.93;;;33.70;46.40;;;;;;5010656;28;20451;-56
2021/07/23 11:55:44;;;;;;;10.27;9.37;;;32.80;48.20;;;;;;5018331;28;20468;-56
2021/07/23 11:58:21;;;;;;;10.83;9.93;;;32.10;49.00;;;;;;5017577;28;20259;-55
2021/07/23 12:00:47;;;;;;;10.43;9.43;;;31.50;50.50;;;;;;5019978;28;20459;-61
2021/07/23 12:03:19;;;;;;;11.40;10.40;;;30.80;51.30;;;;;;5014219;28;20800;-56
2021/07/23 12:05:48;;;;;;;12.93;10.87;;;30.60;52.40;;;;;;5010649;28;20575;-55
2021/07/23 12:08:13;;;;;;;9.97;9.07;;;30.70;51.70;;;;;;5011833;28;20452;-55
2021/07/23 12:10:40;;;;;;;11.30;10.30;;;30.70;50.50;;;;;;5013119;28;20964;-55
2021/07/23 12:13:16;;;;;;;10.63;9.73;;;30.60;50.80;;;;;;5014822;28;20407;-55
2021/07/23 12:15:50;;;;;;;11.07;10.10;;;30.50;51.50;;;;;;5022069;28;20468;-55
2021/07/23 12:18:18;;;;;;;10.50;9.57;;;30.20;52.20;;;;;;5025793;28;20446;-55
2021/07/23 12:20:44;;;;;;;9.40;8.60;;;30.10;52.80;;;;;;5033598;28;21007;-55
2021/07/23 12:23:10;;;;;;;10.30;9.30;;;30.10;53.50;;;;;;5030045;28;20444;-55
2021/07/23 12:25:43;;;;;;;10.10;9.10;;;30.00;53.50;;;;;;5011062;28;20206;-55
2021/07/23 12:28:11;;;;;;;10.60;9.70;;;30.00;53.70;;;;;;5029801;28;20789;-55
2021/07/23 12:30:37;;;;;;;10.47;9.47;;;29.90;53.90;;;;;;5012731;28;20541;-56
2021/07/23 12:33:17;;;;;;;9.17;8.37;;;29.90;52.70;;;;;;5016272;28;20448;-56